Lake Hughes, CA

5:10 PM PDT on April 23, 2017 (GMT -0700)
Our Top Notch Ranch LV | | Change Station
Active Advisory: Wind Advisory Active Notice: Public Information Statement

Elev 3383 ft 34.61 °N, 118.24 °W | Updated 2 minutes ago

Clear
Clear
69.9 °F
Feels Like 69.9 °F
N
5.0
Wind Variable Wind from WNW
Gusts 8.0 mph

Today
High -- | Low -- °F
--% Chance of Precip.
Yesterday
High -- | Low -- °F
Precip. -- in
Pressure 29.82 in
Visibility 10.0 miles
Clouds Clear
Dew Point 37.0 °F
Humidity 30%
Rainfall 0.00 in
Snow Depth Not available.
6:11 AM 7:32 PM
Waning Crescent, 9% visible
METAR KWJF 232356Z 28027G33KT 10SM CLR 23/03 A2985 RMK AO2 PK WND 29033/2353 SLP096 T02280028 10261 20228 56005 $
Pressure 29.82 in
Visibility 10.0 miles
Clouds Clear
Dew Point 37.0 °F
Humidity 30%
Rainfall 0.00 in
Snow Depth Not available.
6:11 AM 7:32 PM
Waning Crescent, 9% visible
METAR KWJF 232356Z 28027G33KT 10SM CLR 23/03 A2985 RMK AO2 PK WND 29033/2353 SLP096 T02280028 10261 20228 56005 $

Get Your Daily Forecast Email!

Thanks for signing up!

Be on the lookout for a verification email in your inbox.

You'll start receiving severe weather alerts in your inbox..

×

10-Day Weather Forecast

Almanac

Astronomy

Apr. 23, 2017 Rise Set
Actual Time
Civil Twilight
Nautical Twilight
Astronomical Twilight
Moon
Length of Visible Light
Length of Day
Tomorrow will be .
, % of the Moon is Illuminated

Today's Extremes

State Highs State Lows

Community

WunderPhotos

WunderBlog® & News

Nearby

Air Quality

  Air Quality AQ Index Pollutant
Not available.

Snow Depth

Station Depth Elevation

Earthquake Activity

City Distance Mag. Time & Date
Minimum magnitude displayed is 2.5.

Coastal Water Temperatures

Place Temperature

Stations

Nearby Weather Stations

Station Location Temp. Windchill Dew Point Humidity Wind Precip. Elev Updated Type
                   

Watches & Warnings

Wind Advisory
Issued: 1:21 PM PDT Apr. 23, 2017 – National Weather Service

... Wind Advisory in effect until 3 am PDT Wednesday...

The National Weather Service in Los Angeles/Oxnard has issued a
Wind Advisory, which is in effect until 3 am PDT Wednesday.

* Winds... areas of northwest to north winds 20 to 30 mph with
gusts between 45 and 55 mph. The strongest winds will be through
the Interstate 5 corridor. In the Antelope Valley the strongest
winds will be in the northwest portion of the valley. Winds will
weaken midday and then strengthen again in the afternoon.

* Impacts... .gusty winds will make driving difficult, especially
for high profile vehicles.

Precautionary/preparedness actions...

When driving, use extra caution. Be prepared for sudden gusty
cross winds.